createdAt,value
2023-02-12T00:00:52.051Z,23.00
2023-02-12T00:03:19.189Z,23.23
2023-02-12T00:05:46.298Z,21.75
2023-02-12T00:08:14.256Z,22.00
2023-02-12T00:10:43.285Z,21.20
2023-02-12T00:13:11.913Z,22.02
2023-02-12T00:15:42.955Z,21.83
2023-02-12T00:18:10.514Z,21.55
2023-02-12T00:20:38.356Z,22.63
2023-02-12T00:23:06.389Z,22.92
2023-02-12T00:25:34.200Z,21.75
2023-02-12T00:28:01.295Z,19.63
2023-02-12T00:30:28.450Z,19.05
2023-02-12T00:32:55.758Z,19.05
2023-02-12T00:35:22.873Z,20.38
2023-02-12T00:37:50.789Z,22.73
2023-02-12T00:40:18.091Z,21.38
2023-02-12T00:42:45.151Z,23.67
2023-02-12T00:45:12.288Z,21.13
2023-02-12T00:47:39.404Z,20.60
2023-02-12T00:50:07.259Z,19.50
2023-02-12T00:52:34.343Z,21.00
2023-02-12T00:55:01.526Z,21.63
2023-02-12T00:57:28.697Z,21.95
2023-02-12T00:59:56.964Z,21.55
2023-02-12T01:02:24.258Z,21.42
2023-02-12T01:04:51.662Z,21.15
2023-02-12T01:07:18.783Z,21.45
2023-02-12T01:09:46.137Z,20.40
2023-02-12T01:12:13.333Z,20.38
2023-02-12T01:14:40.424Z,20.85
2023-02-12T01:17:09.642Z,21.42
2023-02-12T01:19:36.847Z,21.38
2023-02-12T01:22:04.008Z,22.65
2023-02-12T01:24:31.162Z,20.75
2023-02-12T01:26:58.939Z,20.85
2023-02-12T01:29:26.069Z,19.80
2023-02-12T01:31:53.258Z,21.38
2023-02-12T01:34:20.463Z,21.20
2023-02-12T01:36:47.582Z,21.90
2023-02-12T01:39:14.698Z,21.58
2023-02-12T01:41:44.702Z,21.30
2023-02-12T01:44:22.011Z,20.73
2023-02-12T01:46:55.709Z,21.13
2023-02-12T01:49:29.447Z,19.73
2023-02-12T01:52:04.904Z,19.48
2023-02-12T01:54:35.875Z,18.15
2023-02-12T01:57:06.427Z,13.63
2023-02-12T01:59:36.565Z,17.80
2023-02-12T02:02:05.066Z,17.70
2023-02-12T02:04:40.133Z,17.45
2023-02-12T02:07:09.783Z,16.55
2023-02-12T02:09:39.085Z,16.67
2023-02-12T02:12:25.485Z,19.20
2023-02-12T02:14:56.532Z,17.42
2023-02-12T02:17:35.470Z,14.48
2023-02-12T02:20:39.771Z,15.57
2023-02-12T02:23:28.588Z,16.92
2023-02-12T02:26:40.262Z,15.10
2023-02-12T02:29:26.652Z,16.33
2023-02-12T02:32:16.841Z,15.77
2023-02-12T02:35:09.181Z,14.02
2023-02-12T02:37:41.483Z,15.40
2023-02-12T02:40:14.286Z,13.77
2023-02-12T02:42:51.415Z,13.70
2023-02-12T02:45:30.768Z,15.15
2023-02-12T02:48:06.767Z,15.82
2023-02-12T02:50:38.746Z,16.35
2023-02-12T02:53:11.994Z,16.23
2023-02-12T02:55:46.244Z,15.90
2023-02-12T02:58:20.748Z,15.45
2023-02-12T03:01:02.000Z,16.00
2023-02-12T03:03:44.675Z,13.98
2023-02-12T03:06:42.085Z,14.75
2023-02-12T03:09:27.428Z,14.32
2023-02-12T03:11:59.011Z,14.23
2023-02-12T03:14:32.251Z,12.13
2023-02-12T03:17:21.005Z,13.60
2023-02-12T03:19:58.420Z,13.13
2023-02-12T03:22:31.473Z,12.55
2023-02-12T03:25:14.050Z,12.38
2023-02-12T03:27:57.338Z,12.18
2023-02-12T03:30:33.974Z,12.50
2023-02-12T03:33:19.573Z,11.63
2023-02-12T03:35:57.684Z,12.52
2023-02-12T03:38:54.862Z,12.07
2023-02-12T03:41:32.070Z,12.90
2023-02-12T03:44:15.577Z,13.35
2023-02-12T03:47:10.165Z,14.10
2023-02-12T03:49:51.052Z,12.27
2023-02-12T03:52:18.200Z,11.90
2023-02-12T03:54:45.941Z,14.15
2023-02-12T03:57:21.511Z,14.65
2023-02-12T03:59:49.788Z,13.68
2023-02-12T04:02:18.925Z,13.20
2023-02-12T04:04:47.584Z,13.68
2023-02-12T04:07:16.359Z,12.18
2023-02-12T04:09:44.016Z,11.52
2023-02-12T04:12:44.352Z,12.88
2023-02-12T04:15:20.232Z,12.02
2023-02-12T04:18:14.928Z,13.52
2023-02-12T04:24:05.403Z,11.85
2023-02-12T04:27:02.063Z,12.52
2023-02-12T04:30:09.675Z,11.60
2023-02-12T04:32:41.415Z,12.43
2023-02-12T04:35:34.857Z,11.57
2023-02-12T04:38:26.740Z,10.93
2023-02-12T04:40:53.970Z,10.40
2023-02-12T04:43:35.349Z,10.80
2023-02-12T04:46:08.324Z,10.70
2023-02-12T04:48:39.844Z,12.05
2023-02-12T04:51:06.943Z,12.90
2023-02-12T04:53:34.007Z,13.30
2023-02-12T04:56:01.075Z,15.75
2023-02-12T04:58:28.161Z,11.23
2023-02-12T05:00:59.301Z,9.77
2023-02-12T05:03:26.397Z,9.68
2023-02-12T05:05:53.648Z,8.45
2023-02-12T05:08:20.784Z,9.02
2023-02-12T05:10:47.905Z,9.57
2023-02-12T05:13:14.962Z,10.23
2023-02-12T05:15:42.094Z,9.98
2023-02-12T05:18:09.205Z,11.35
2023-02-12T05:20:36.290Z,8.95
2023-02-12T05:23:03.510Z,11.45
2023-02-12T05:25:31.915Z,10.38
2023-02-12T05:27:59.133Z,10.40
2023-02-12T05:30:26.221Z,10.80
2023-02-12T05:32:53.280Z,9.63
2023-02-12T05:35:20.461Z,9.65
2023-02-12T05:37:47.581Z,8.45
2023-02-12T05:40:15.150Z,8.50
2023-02-12T05:42:42.233Z,10.93
2023-02-12T05:45:09.599Z,10.35
2023-02-12T05:47:36.769Z,11.43
2023-02-12T05:50:04.080Z,9.55
2023-02-12T05:52:31.159Z,9.48
2023-02-12T05:54:58.261Z,8.75
2023-02-12T05:57:25.424Z,9.98
2023-02-12T05:59:52.593Z,9.38
2023-02-12T06:02:19.732Z,8.80
2023-02-12T06:04:48.573Z,8.85
2023-02-12T06:07:15.877Z,10.32
2023-02-12T06:09:42.992Z,9.30
2023-02-12T06:12:10.066Z,9.43
2023-02-12T06:14:37.185Z,11.00
2023-02-12T06:17:04.233Z,10.35
2023-02-12T06:19:31.331Z,9.82
2023-02-12T06:21:58.420Z,7.80
2023-02-12T06:24:25.756Z,7.65
2023-02-12T06:26:52.850Z,9.35
2023-02-12T06:29:20.379Z,12.27
2023-02-12T06:31:48.111Z,14.82
2023-02-12T06:34:18.875Z,12.82
2023-02-12T06:36:47.283Z,11.60
2023-02-12T06:39:16.443Z,10.10
2023-02-12T06:41:44.576Z,9.30
2023-02-12T06:44:12.673Z,9.13
2023-02-12T06:46:39.833Z,9.82
2023-02-12T06:49:07.151Z,9.02
2023-02-12T06:51:36.337Z,11.15
2023-02-12T06:54:03.495Z,10.75
2023-02-12T06:56:30.554Z,11.40
2023-02-12T06:59:01.085Z,12.65
2023-02-12T07:01:29.821Z,12.68
2023-02-12T07:03:59.987Z,12.50
2023-02-12T07:06:29.332Z,12.57
2023-02-12T07:08:56.949Z,12.63
2023-02-12T07:11:29.322Z,13.35
2023-02-12T07:13:56.413Z,13.60
2023-02-12T07:16:23.799Z,10.73
2023-02-12T07:18:51.129Z,12.38
2023-02-12T07:21:18.592Z,11.88
2023-02-12T07:23:51.992Z,13.73
2023-02-12T07:26:20.766Z,13.82
2023-02-12T07:28:48.442Z,13.82
2023-02-12T07:31:18.731Z,11.57
2023-02-12T07:33:46.685Z,13.25
2023-02-12T07:36:17.880Z,11.52
2023-02-12T07:38:45.311Z,13.40
2023-02-12T07:41:13.629Z,15.93
2023-02-12T07:43:42.141Z,18.88
2023-02-12T07:46:17.043Z,16.70
2023-02-12T07:48:45.210Z,14.32
2023-02-12T07:51:16.834Z,11.57
2023-02-12T07:53:43.925Z,11.23
2023-02-12T07:56:14.302Z,9.73
2023-02-12T07:58:44.965Z,9.00
2023-02-12T08:01:22.365Z,9.63
2023-02-12T08:03:50.728Z,10.35
2023-02-12T08:06:22.877Z,10.20
2023-02-12T08:08:58.941Z,9.43
2023-02-12T08:11:27.675Z,9.90
2023-02-12T08:13:55.393Z,9.10
2023-02-12T08:16:24.711Z,8.88
2023-02-12T08:18:52.880Z,9.15
2023-02-12T08:21:22.976Z,9.48
2023-02-12T08:23:50.864Z,7.40
2023-02-12T08:26:19.305Z,7.53
2023-02-12T08:29:04.210Z,8.10
2023-02-12T08:31:34.275Z,6.38
2023-02-12T08:34:01.993Z,7.00
2023-02-12T08:36:38.359Z,7.22
2023-02-12T08:39:07.473Z,7.65
2023-02-12T08:41:35.250Z,6.97
2023-02-12T08:44:04.199Z,6.43
2023-02-12T08:46:36.570Z,7.70
2023-02-12T08:49:06.941Z,7.63
2023-02-12T08:51:36.292Z,7.55
2023-02-12T08:54:06.287Z,6.13
2023-02-12T08:56:35.187Z,5.30
2023-02-12T08:59:04.905Z,6.65
2023-02-12T09:01:34.014Z,6.68
2023-02-12T09:04:01.563Z,6.82
2023-02-12T09:06:28.611Z,6.88
2023-02-12T09:08:55.786Z,7.13
2023-02-12T09:11:30.644Z,7.03
2023-02-12T09:14:01.017Z,6.63
2023-02-12T09:16:29.938Z,7.65
2023-02-12T09:18:57.664Z,6.68
2023-02-12T09:21:25.221Z,7.45
2023-02-12T09:23:53.159Z,7.90
2023-02-12T09:26:23.017Z,6.90
2023-02-12T09:28:51.300Z,6.82
2023-02-12T09:31:26.454Z,6.65
2023-02-12T09:33:57.696Z,6.43
2023-02-12T09:36:25.437Z,6.40
2023-02-12T09:38:54.147Z,6.38
2023-02-12T09:41:23.890Z,6.32
2023-02-12T09:43:58.466Z,6.93
2023-02-12T09:47:00.172Z,6.22
2023-02-12T09:49:45.643Z,7.10
2023-02-12T09:52:30.873Z,7.15
2023-02-12T09:54:58.914Z,7.07
2023-02-12T09:57:31.277Z,6.50
2023-02-12T10:00:02.934Z,6.85
2023-02-12T10:02:34.878Z,7.05
2023-02-12T10:05:02.762Z,7.30
2023-02-12T10:08:04.711Z,7.10
2023-02-12T10:10:43.802Z,7.65
2023-02-12T10:13:40.229Z,7.13
2023-02-12T10:16:16.156Z,6.97
2023-02-12T10:18:51.988Z,7.55
2023-02-12T10:21:42.393Z,7.68
2023-02-12T10:24:18.256Z,7.60
2023-02-12T10:26:49.999Z,7.80
2023-02-12T10:29:28.882Z,9.57
2023-02-12T10:32:07.693Z,9.85
2023-02-12T10:34:37.126Z,9.02
2023-02-12T10:37:16.252Z,9.82
2023-02-12T10:39:50.482Z,10.75
2023-02-12T10:42:45.445Z,11.40
2023-02-12T10:45:25.212Z,12.30
2023-02-12T10:48:01.847Z,13.60
2023-02-12T10:50:41.575Z,13.13
2023-02-12T10:53:17.545Z,14.60
2023-02-12T10:55:44.636Z,15.52
2023-02-12T10:58:21.939Z,15.45
2023-02-12T11:01:00.130Z,14.73
2023-02-12T11:03:34.927Z,16.25
2023-02-12T11:06:20.365Z,15.35
2023-02-12T11:08:47.711Z,15.70
2023-02-12T11:11:27.196Z,16.50
2023-02-12T11:14:03.044Z,17.48
2023-02-12T11:16:33.212Z,16.70
2023-02-12T11:19:06.297Z,16.77
2023-02-12T11:21:34.660Z,18.08
2023-02-12T11:24:32.627Z,19.85
2023-02-12T11:27:21.592Z,17.08
2023-02-12T11:30:12.052Z,17.60
2023-02-12T11:32:39.324Z,18.90
2023-02-12T11:35:13.551Z,18.15
2023-02-12T11:37:43.537Z,18.25
2023-02-12T11:40:22.629Z,19.88
2023-02-12T11:43:02.396Z,19.45
2023-02-12T11:45:52.468Z,17.58
2023-02-12T11:48:24.768Z,19.48
2023-02-12T11:50:54.763Z,18.90
2023-02-12T11:53:34.297Z,18.70
2023-02-12T11:56:10.390Z,19.42
2023-02-12T11:58:38.577Z,20.35
2023-02-12T12:01:12.724Z,19.90
2023-02-12T12:03:58.473Z,19.48
2023-02-12T12:06:37.968Z,18.65
2023-02-12T12:09:26.803Z,21.58
2023-02-12T12:12:09.024Z,19.63
2023-02-12T12:15:15.811Z,21.23
2023-02-12T12:18:07.350Z,21.45
2023-02-12T12:20:45.111Z,21.15
2023-02-12T12:23:34.787Z,21.98
2023-02-12T12:26:09.483Z,22.33
2023-02-12T12:29:11.481Z,19.48
2023-02-12T12:31:42.740Z,22.45
2023-02-12T12:34:11.568Z,24.65
2023-02-12T12:36:57.397Z,24.08
2023-02-12T12:39:27.191Z,22.10
2023-02-12T12:42:28.210Z,25.63
2023-02-12T12:45:10.386Z,22.42
2023-02-12T12:47:49.452Z,23.73
2023-02-12T12:50:35.430Z,24.70
2023-02-12T12:53:24.532Z,23.70
2023-02-12T12:56:24.964Z,25.77
2023-02-12T12:59:27.131Z,25.00
2023-02-12T13:02:28.023Z,24.38
2023-02-12T13:05:13.798Z,25.15
2023-02-12T13:07:46.972Z,26.77
2023-02-12T13:10:23.366Z,25.90
2023-02-12T13:13:06.796Z,25.23
2023-02-12T13:15:46.589Z,24.42
2023-02-12T13:18:50.117Z,24.17
2023-02-12T13:21:35.742Z,24.70
2023-02-12T13:24:04.793Z,25.10
2023-02-12T13:26:43.717Z,27.48
2023-02-12T13:29:20.433Z,24.92
2023-02-12T13:31:57.984Z,27.42
2023-02-12T13:34:29.592Z,25.10
2023-02-12T13:36:58.709Z,27.92
2023-02-12T13:39:52.977Z,29.60
2023-02-12T13:42:47.539Z,29.58
2023-02-12T13:45:36.675Z,31.20
2023-02-12T13:48:35.189Z,33.58
2023-02-12T13:51:14.233Z,32.80
2023-02-12T13:53:47.135Z,31.85
2023-02-12T13:56:34.907Z,32.03
2023-02-12T13:59:02.311Z,32.95
2023-02-12T14:01:49.245Z,32.67
2023-02-12T14:04:37.628Z,30.98
2023-02-12T14:07:07.731Z,32.83
2023-02-12T14:09:49.792Z,31.45
2023-02-12T14:12:30.391Z,33.42
2023-02-12T14:15:09.754Z,30.70
2023-02-12T14:17:36.858Z,32.20
2023-02-12T14:20:06.833Z,34.90
2023-02-12T14:22:33.925Z,35.90
2023-02-12T14:25:21.750Z,34.45
2023-02-12T14:27:52.667Z,37.22
2023-02-12T14:30:39.024Z,34.35
2023-02-12T14:33:08.269Z,35.08
2023-02-12T14:35:36.801Z,34.63
2023-02-12T14:38:47.764Z,32.42
2023-02-12T14:41:37.341Z,33.15
2023-02-12T14:44:29.404Z,33.10
2023-02-12T14:46:58.838Z,33.63
2023-02-12T14:49:27.586Z,35.30
2023-02-12T14:52:07.594Z,33.65
2023-02-12T14:54:41.403Z,35.13
2023-02-12T14:57:19.260Z,35.53
2023-02-12T14:59:48.451Z,33.47
2023-02-12T15:02:27.822Z,34.13
2023-02-12T15:05:01.376Z,35.00
2023-02-12T15:10:19.535Z,33.13
2023-02-12T15:13:16.065Z,32.38
2023-02-12T15:15:50.944Z,32.65
2023-02-12T15:18:28.196Z,34.88
2023-02-12T15:21:20.717Z,36.72
2023-02-12T15:24:00.425Z,36.67
2023-02-12T15:26:29.313Z,36.47
2023-02-12T15:28:56.455Z,35.03
2023-02-12T15:31:29.258Z,32.42
2023-02-12T15:33:59.197Z,32.90
2023-02-12T15:36:29.406Z,36.28
2023-02-12T15:39:01.531Z,37.65
2023-02-12T15:41:36.846Z,38.42
2023-02-12T15:44:31.206Z,38.05
2023-02-12T15:47:01.025Z,40.33
2023-02-12T15:49:33.876Z,38.80
2023-02-12T15:52:07.191Z,38.97
2023-02-12T15:54:35.386Z,42.78
2023-02-12T15:57:10.261Z,42.47
2023-02-12T15:59:37.897Z,44.10
2023-02-12T16:02:18.588Z,44.65
2023-02-12T16:04:46.021Z,43.13
2023-02-12T16:07:14.871Z,43.38
2023-02-12T16:09:43.152Z,42.28
2023-02-12T16:12:15.397Z,43.35
2023-02-12T16:14:47.919Z,44.30
2023-02-12T16:17:33.112Z,45.35
2023-02-12T16:20:22.004Z,44.17
2023-02-12T16:22:51.381Z,44.58
2023-02-12T16:25:28.527Z,44.58
2023-02-12T16:28:02.922Z,44.08
2023-02-12T16:30:31.835Z,44.47
2023-02-12T16:32:59.940Z,47.88
2023-02-12T16:35:32.756Z,45.00
2023-02-12T16:38:39.076Z,46.43
2023-02-12T16:41:18.109Z,47.10
2023-02-12T16:44:01.241Z,45.67
2023-02-12T16:46:31.698Z,49.13
2023-02-12T16:49:01.253Z,48.28
2023-02-12T16:51:31.933Z,47.47
2023-02-12T16:54:01.541Z,49.97
2023-02-12T16:56:37.797Z,51.17
2023-02-12T16:59:05.033Z,51.88
2023-02-12T17:01:36.444Z,51.63
2023-02-12T17:04:13.313Z,47.85
2023-02-12T17:06:40.434Z,49.13
2023-02-12T17:09:07.600Z,51.35
2023-02-12T17:11:34.722Z,51.33
2023-02-12T17:14:01.813Z,51.55
2023-02-12T17:16:31.368Z,50.88
2023-02-12T17:19:00.041Z,50.85
2023-02-12T17:21:31.853Z,53.08
2023-02-12T17:23:59.125Z,49.90
2023-02-12T17:26:26.233Z,50.83
2023-02-12T17:28:53.342Z,47.25
2023-02-12T17:31:20.794Z,50.60
2023-02-12T17:33:48.150Z,46.40
2023-02-12T17:36:15.240Z,50.08
2023-02-12T17:38:42.327Z,48.75
2023-02-12T17:41:10.921Z,50.40
2023-02-12T17:43:38.463Z,51.78
2023-02-12T17:46:11.260Z,49.92
2023-02-12T17:48:38.514Z,51.03
2023-02-12T17:51:06.042Z,49.17
2023-02-12T17:53:33.129Z,49.00
2023-02-12T17:56:00.446Z,51.72
2023-02-12T17:58:27.670Z,49.28
2023-02-12T18:00:55.857Z,50.17
2023-02-12T18:03:23.324Z,50.70
2023-02-12T18:05:50.406Z,51.40
2023-02-12T18:08:17.651Z,51.65
2023-02-12T18:10:45.144Z,50.90
2023-02-12T18:13:13.958Z,48.50
2023-02-12T18:15:41.399Z,46.08
2023-02-12T18:18:09.301Z,49.17
2023-02-12T18:20:36.560Z,49.08
2023-02-12T18:23:04.511Z,46.00
2023-02-12T18:25:31.572Z,49.95
2023-02-12T18:28:01.222Z,47.83
2023-02-12T18:30:28.662Z,48.75
2023-02-12T18:32:55.780Z,46.72
2023-02-12T18:35:22.847Z,47.88
2023-02-12T18:37:50.436Z,45.30
2023-02-12T18:40:17.659Z,46.78
2023-02-12T18:42:45.030Z,47.60
2023-02-12T18:45:12.228Z,46.33
2023-02-12T18:47:39.345Z,48.40
2023-02-12T18:50:07.073Z,48.17
2023-02-12T18:52:34.200Z,47.47
2023-02-12T18:55:01.265Z,47.40
2023-02-12T18:57:29.614Z,45.05
2023-02-12T18:59:56.860Z,46.53
2023-02-12T19:02:24.188Z,49.17
2023-02-12T19:04:51.390Z,43.95
2023-02-12T19:07:18.525Z,46.30
2023-02-12T19:09:45.850Z,48.30
2023-02-12T19:12:12.984Z,44.85
2023-02-12T19:14:40.048Z,45.53
2023-02-12T19:17:07.110Z,45.72
2023-02-12T19:19:34.283Z,44.20
2023-02-12T19:22:01.389Z,45.10
2023-02-12T19:24:40.889Z,43.30
2023-02-12T19:27:11.758Z,43.37
2023-02-12T19:29:38.837Z,47.03
2023-02-12T19:32:05.994Z,46.13
2023-02-12T19:34:33.126Z,45.88
2023-02-12T19:37:00.185Z,47.30
2023-02-12T19:39:27.576Z,44.60
2023-02-12T19:41:56.154Z,46.08
2023-02-12T19:44:24.996Z,42.53
2023-02-12T19:46:52.646Z,42.10
2023-02-12T19:49:25.912Z,41.45
2023-02-12T19:51:53.664Z,41.13
2023-02-12T19:54:22.976Z,41.63
2023-02-12T19:56:51.720Z,41.20
2023-02-12T19:59:21.529Z,40.92
2023-02-12T20:01:49.685Z,41.17
2023-02-12T20:04:20.139Z,40.38
2023-02-12T20:06:50.779Z,41.35
2023-02-12T20:09:19.441Z,42.15
2023-02-12T20:11:46.846Z,38.90
2023-02-12T20:14:14.500Z,39.40
2023-02-12T20:16:43.758Z,40.05
2023-02-12T20:19:13.006Z,38.20
2023-02-12T20:21:40.731Z,39.85
2023-02-12T20:24:08.161Z,39.22
2023-02-12T20:26:35.731Z,39.30
2023-02-12T20:29:05.197Z,39.47
2023-02-12T20:31:36.051Z,39.22
2023-02-12T20:34:10.809Z,37.67
2023-02-12T20:36:39.789Z,38.25
2023-02-12T20:39:09.660Z,37.50
2023-02-12T20:41:37.235Z,36.92
2023-02-12T20:44:07.681Z,38.33
2023-02-12T20:46:39.531Z,37.70
2023-02-12T20:49:06.845Z,37.75
2023-02-12T20:51:34.342Z,36.65
2023-02-12T20:54:02.587Z,39.22
2023-02-12T20:56:32.112Z,35.47
2023-02-12T20:59:00.108Z,36.97
2023-02-12T21:01:34.565Z,37.03
2023-02-12T21:04:05.109Z,37.60
2023-02-12T21:06:32.955Z,35.45
2023-02-12T21:09:00.068Z,36.20
2023-02-12T21:11:28.701Z,36.15
2023-02-12T21:13:59.336Z,37.13
2023-02-12T21:16:32.333Z,33.22
2023-02-12T21:18:59.776Z,37.00
2023-02-12T21:21:29.745Z,36.33
2023-02-12T21:23:58.257Z,35.65
2023-02-12T21:26:27.007Z,34.70
2023-02-12T21:28:56.352Z,34.40
2023-02-12T21:31:29.305Z,34.47
2023-02-12T21:33:58.252Z,35.37
2023-02-12T21:36:28.352Z,33.60
2023-02-12T21:38:55.779Z,32.67
2023-02-12T21:41:28.428Z,33.10
2023-02-12T21:44:10.096Z,33.00
2023-02-12T21:46:37.539Z,33.58
2023-02-12T21:49:05.133Z,35.28
2023-02-12T21:51:37.924Z,33.53
2023-02-12T21:54:10.664Z,32.80
2023-02-12T21:56:40.173Z,35.03
2023-02-12T21:59:08.626Z,35.53
2023-02-12T22:01:38.104Z,35.22
2023-02-12T22:04:06.767Z,33.42
2023-02-12T22:06:40.844Z,34.90
2023-02-12T22:09:09.382Z,33.50
2023-02-12T22:11:37.675Z,35.47
2023-02-12T22:14:07.158Z,34.90
2023-02-12T22:16:35.863Z,36.15
2023-02-12T22:19:03.944Z,33.60
2023-02-12T22:21:34.264Z,34.80
2023-02-12T22:24:03.260Z,33.35
2023-02-12T22:26:31.828Z,34.05
2023-02-12T22:29:02.293Z,31.95
2023-02-12T22:31:32.261Z,34.15
2023-02-12T22:34:08.393Z,34.47
2023-02-12T22:36:36.798Z,34.95
2023-02-12T22:39:05.037Z,33.50
2023-02-12T22:41:32.361Z,35.42
2023-02-12T22:44:00.850Z,37.08
2023-02-12T22:46:28.130Z,36.88
2023-02-12T22:48:55.406Z,35.42
2023-02-12T22:51:25.597Z,35.88
2023-02-12T22:53:53.024Z,37.42
2023-02-12T22:56:20.434Z,37.35
2023-02-12T22:58:48.047Z,37.75
2023-02-12T23:01:18.369Z,39.78
2023-02-12T23:03:45.996Z,40.78
2023-02-12T23:06:15.513Z,40.30
2023-02-12T23:08:43.263Z,41.40
2023-02-12T23:11:11.195Z,45.13
2023-02-12T23:13:38.628Z,43.72
2023-02-12T23:16:05.842Z,43.92
2023-02-12T23:18:33.337Z,43.63
2023-02-12T23:21:01.330Z,42.65
2023-02-12T23:23:28.683Z,41.90
2023-02-12T23:25:56.249Z,41.80
2023-02-12T23:28:23.668Z,45.03
2023-02-12T23:30:52.061Z,49.55
2023-02-12T23:33:20.185Z,48.53
2023-02-12T23:35:48.230Z,49.60
2023-02-12T23:38:15.927Z,48.33
2023-02-12T23:40:43.643Z,47.88
2023-02-12T23:43:11.004Z,46.00
2023-02-12T23:45:38.289Z,49.33
2023-02-12T23:48:05.670Z,48.53
2023-02-12T23:50:32.822Z,47.17
2023-02-12T23:53:00.046Z,50.53
2023-02-12T23:55:27.211Z,49.58
2023-02-12T23:57:54.399Z,47.85
